METAR LDZA 192030Z 27008KT 240V320 9999 -DZ OVC005 02/01 Q1015 REDZ TEMPO 4000 -RASN SCT005 OVC035 =
METAR LDZA 192000Z 27004KT 230V330 9999 DZ OVC006 02/01 Q1015 TEMPO 4000 -RASN SCT005 OVC035 =
METAR LDZA 191930Z 27006KT 230V300 9999 -RA SCT007 BKN020 02/01 Q1014 TEMPO 4000 -RASN =
METAR LDZA 191900Z 19006KT 140V210 9999 -RA FEW006 BKN023 OVC049 03/01 Q1013 TEMPO 4000 -RASN =
METAR LDZA 191830Z 18009KT 150V220 9999 -RA SCT007 OVC030 03/01 Q1014 RERA TEMPO 4000 -RASN =
METAR LDZA 191800Z 16008KT 110V200 9999 RA BKN008 OVC025 03/01 Q1013 RERA TEMPO 4000 RASN =
METAR LDZA 191730Z VRB02KT 8000 +RA BKN010 OVC023 04/02 Q1013 TEMPO 4000 RASN =
METAR LDZA 191700Z 07007KT 020V140 8000 +RA FEW010 OVC023 04/02 Q1013 TEMPO 4000 RASN BKN012 =
METAR LDZA 191630Z 13003KT 100V160 8000 -RA FEW010 OVC023 04/02 Q1012 RERA TEMPO 4000 RASN BKN012 =
METAR LDZA 191600Z 06005KT 020V110 8000 -RASN BKN017 OVC030 04/02 Q1012 RERA TEMPO 4000 BKN012 =
METAR LDZA 191530Z 02006KT 340V070 8000 +RA BKN017 OVC030 04/02 Q1012 TEMPO 4000 BKN012 =
METAR LDZA 191500Z 03012KT 340V070 6000 RA BKN012 OVC023 04/02 Q1011 TEMPO 4000 =
METAR LDZA 191430Z 02009KT 320V060 8000 RA BKN015 OVC028 05/03 Q1011 NOSIG =
METAR LDZA 191400Z 01009KT 330V050 8000 RA FEW011 OVC030 05/03 Q1011 NOSIG =
METAR LDZA 191330Z 02015KT 350V050 6000 RA SCT017 OVC030 06/04 Q1010 RERA TEMPO 3000 =
METAR LDZA 191300Z 04003KT 360V070 6000 RA FEW020 OVC045 07/06 Q1008 NOSIG =
METAR LDZA 191230Z 01004KT 340V050 9999 -RA FEW003 BKN040 07/05 Q1008 NOSIG =
METAR LDZA 191200Z 02003KT 320V080 9999 FEW003 BKN040 07/06 Q1008 NOSIG =
METAR LDZA 191130Z 03004KT 360V070 9999 FEW003 BKN040 07/05 Q1007 NOSIG =
METAR LDZA 191100Z 03004KT 360V060 9999 FEW003 BKN045 07/05 Q1007 TEMPO RA =
METAR LDZA 191030Z VRB02KT 9999 -RA FEW003 BKN040 07/05 Q1007 TEMPO RA =
METAR LDZA 191000Z 05004KT 340V090 8000 -RA FEW003 BKN042 06/05 Q1008 TEMPO RA =
METAR LDZA 190930Z 04003KT 010V090 9999 -RA BKN041 06/05 Q1008 TEMPO RA =
METAR LDZA 190900Z 00000KT 9999 -RA BKN041 06/05 Q1007 TEMPO RA =
METAR LDZA 190830Z 11003KT 050V150 9999 -RA BKN043 06/05 Q1007 TEMPO RA =
METAR LDZA 190800Z VRB01KT 9999 -RA OVC040 06/04 Q1007 TEMPO RA =
METAR LDZA 190730Z 04006KT 9999 -RA OVC038 05/04 Q1007 TEMPO RA =
METAR LDZA 190700Z 05007KT 010V080 9999 -RA OVC038 06/03 Q1007 TEMPO RA =
METAR LDZA 190630Z 05008KT 9999 -RA OVC041 06/02 Q1007 TEMPO RA =
METAR LDZA 190600Z 00000KT 9999 OVC044 07/01 Q1007 BECMG 05008KT TEMPO RA =
METAR LDZA 190530Z VRB03KT 9999 BKN045 07/01 Q1007 BECMG 05008KT TEMPO RA =
METAR COR LDZA 190500Z 18007KT 150V210 9999 OVC046 08/01 Q1006 BECMG 05008KT TEMPO RA=
METAR LDZA 190430Z 17008KT 140V200 9999 BKN046 07/01 Q1006 NOSIG =
METAR LDZA 190400Z 21004KT 9999 BKN042 08/01 Q1006 NOSIG =
METAR LDZA 190330Z 20005KT 9999 BKN042 08/01 Q1006 NOSIG =
METAR LDZA 190300Z 20005KT 9999 BKN042 07/00 Q1006 NOSIG =
METAR LDZA 190230Z 20005KT 9999 BKN046 07/00 Q1006 NOSIG =
METAR LDZA 190200Z 23007KT 9999 BKN048 08/00 Q1006 NOSIG =
METAR LDZA 190130Z 21005KT CAVOK 06/M00 Q1006 NOSIG =
METAR LDZA 190100Z 24007KT CAVOK 07/00 Q1006 NOSIG =
METAR LDZA 190030Z 23010KT CAVOK 07/00 Q1006 NOSIG =
METAR LDZA 190000Z 24008KT 9999 FEW049 06/M01 Q1006 NOSIG =
METAR LDZA 182330Z 25008KT CAVOK 05/M01 Q1007 NOSIG =
METAR LDZA 182300Z 23010KT CAVOK 05/M01 Q1007 NOSIG =
METAR LDZA 182230Z 25007KT CAVOK 03/M02 Q1007 NOSIG =
METAR LDZA 182200Z 24009KT CAVOK 05/M01 Q1007 NOSIG =
METAR LDZA 182130Z 23010KT CAVOK 06/M01 Q1007 NOSIG =
METAR LDZA 182100Z 21008KT CAVOK 05/M01 Q1007 NOSIG =
METAR LDZA 182030Z 21009KT CAVOK 04/M02 Q1008 NOSIG =
METAR LDZA 182000Z 22009KT CAVOK 05/M03 Q1008 NOSIG =
METAR LDZA 181930Z 22011KT CAVOK 05/M03 Q1008 NOSIG =
METAR LDZA 181900Z 21009KT CAVOK 05/M03 Q1008 NOSIG =
METAR LDZA 181830Z 21008KT CAVOK 05/M02 Q1008 NOSIG =
METAR LDZA 181800Z 22008KT CAVOK 06/M02 Q1009 NOSIG =
METAR LDZA 181730Z 22011KT CAVOK 06/M03 Q1009 NOSIG =
METAR LDZA 181700Z 21011KT CAVOK 07/M03 Q1009 NOSIG =
METAR LDZA 181630Z 23015KT CAVOK 08/M04 Q1009 NOSIG =
METAR LDZA 181600Z 21010KT 180V240 CAVOK 07/M03 Q1009 NOSIG =
METAR LDZA 181530Z 20010KT 150V230 CAVOK 09/M03 Q1009 NOSIG =
METAR LDZA 181500Z 21010KT CAVOK 10/M03 Q1010 NOSIG =
METAR LDZA 181430Z 20010KT 160V240 CAVOK 11/M04 Q1010 NOSIG =
METAR LDZA 181400Z 19009KT 150V230 CAVOK 11/M03 Q1010 BECMG 23008KT =
METAR LDZA 181330Z 19005KT 120V230 CAVOK 09/M03 Q1010 BECMG 23008KT =
METAR LDZA 181300Z 22003KT 170V300 CAVOK 09/M02 Q1011 BECMG 23008KT =
METAR LDZA 181230Z VRB02KT CAVOK 08/M02 Q1012 BECMG 23008KT =
METAR LDZA 181200Z 00000KT CAVOK 07/M01 Q1012 BECMG 23008KT =
METAR LDZA 181130Z VRB01KT CAVOK 06/M01 Q1013 BECMG 23008KT =
METAR LDZA 181100Z VRB01KT CAVOK 05/M01 Q1013 BECMG 23008KT =
METAR LDZA 181030Z VRB01KT CAVOK 04/M02 Q1014 BECMG 23008KT =
METAR LDZA 181000Z VRB01KT CAVOK 04/M02 Q1015 BECMG 23008KT =
METAR LDZA 180930Z VRB01KT CAVOK 03/M02 Q1015 NOSIG =
METAR LDZA 180900Z VRB01KT CAVOK 01/M02 Q1015 NOSIG =